sensor_id;sensor_type;location;lat;lon;timestamp;P1;durP1;ratioP1;P2;durP2;ratioP2
20230;SDS011;10274;49.022;9.338;2023-08-20T00:00:37;9.07;;;8.07;;
20230;SDS011;10274;49.022;9.338;2023-08-20T00:03:12;8.57;;;7.67;;
20230;SDS011;10274;49.022;9.338;2023-08-20T00:05:39;8.93;;;7.63;;
20230;SDS011;10274;49.022;9.338;2023-08-20T00:08:06;10.63;;;8.93;;
20230;SDS011;10274;49.022;9.338;2023-08-20T00:10:34;9.37;;;8.30;;
20230;SDS011;10274;49.022;9.338;2023-08-20T00:13:00;9.47;;;8.57;;
20230;SDS011;10274;49.022;9.338;2023-08-20T00:15:30;8.97;;;7.97;;
20230;SDS011;10274;49.022;9.338;2023-08-20T00:17:57;8.83;;;8.03;;
20230;SDS011;10274;49.022;9.338;2023-08-20T00:20:24;8.73;;;7.83;;
20230;SDS011;10274;49.022;9.338;2023-08-20T00:22:53;8.80;;;7.93;;
20230;SDS011;10274;49.022;9.338;2023-08-20T00:25:20;10.20;;;8.10;;
20230;SDS011;10274;49.022;9.338;2023-08-20T00:27:47;9.03;;;8.10;;
20230;SDS011;10274;49.022;9.338;2023-08-20T00:30:14;9.17;;;8.23;;
20230;SDS011;10274;49.022;9.338;2023-08-20T00:32:42;9.07;;;8.23;;
20230;SDS011;10274;49.022;9.338;2023-08-20T00:35:08;10.83;;;8.03;;
20230;SDS011;10274;49.022;9.338;2023-08-20T00:37:35;11.50;;;8.53;;
20230;SDS011;10274;49.022;9.338;2023-08-20T00:40:02;8.47;;;7.57;;
20230;SDS011;10274;49.022;9.338;2023-08-20T00:42:30;8.97;;;8.13;;
20230;SDS011;10274;49.022;9.338;2023-08-20T00:44:57;10.40;;;9.33;;
20230;SDS011;10274;49.022;9.338;2023-08-20T00:47:24;9.33;;;8.50;;
20230;SDS011;10274;49.022;9.338;2023-08-20T00:49:52;9.70;;;8.80;;
20230;SDS011;10274;49.022;9.338;2023-08-20T00:52:19;10.07;;;8.77;;
20230;SDS011;10274;49.022;9.338;2023-08-20T00:54:47;11.63;;;8.67;;
20230;SDS011;10274;49.022;9.338;2023-08-20T00:57:15;9.93;;;8.90;;
20230;SDS011;10274;49.022;9.338;2023-08-20T00:59:44;10.70;;;8.20;;
20230;SDS011;10274;49.022;9.338;2023-08-20T01:02:13;9.63;;;7.73;;
20230;SDS011;10274;49.022;9.338;2023-08-20T01:04:40;8.80;;;8.00;;
20230;SDS011;10274;49.022;9.338;2023-08-20T01:07:11;9.13;;;7.63;;
20230;SDS011;10274;49.022;9.338;2023-08-20T01:09:50;9.20;;;8.17;;
20230;SDS011;10274;49.022;9.338;2023-08-20T01:12:21;8.23;;;7.47;;
20230;SDS011;10274;49.022;9.338;2023-08-20T01:14:50;8.27;;;7.57;;
20230;SDS011;10274;49.022;9.338;2023-08-20T01:17:17;9.40;;;8.23;;
20230;SDS011;10274;49.022;9.338;2023-08-20T01:19:43;10.53;;;8.37;;
20230;SDS011;10274;49.022;9.338;2023-08-20T01:22:27;9.23;;;8.33;;
20230;SDS011;10274;49.022;9.338;2023-08-20T01:25:22;9.33;;;8.43;;
20230;SDS011;10274;49.022;9.338;2023-08-20T01:27:58;8.60;;;7.90;;
20230;SDS011;10274;49.022;9.338;2023-08-20T01:30:33;8.80;;;7.87;;
20230;SDS011;10274;49.022;9.338;2023-08-20T01:33:01;10.50;;;8.50;;
20230;SDS011;10274;49.022;9.338;2023-08-20T01:35:28;8.47;;;7.77;;
20230;SDS011;10274;49.022;9.338;2023-08-20T01:37:54;9.33;;;7.70;;
20230;SDS011;10274;49.022;9.338;2023-08-20T01:40:21;9.30;;;8.03;;
20230;SDS011;10274;49.022;9.338;2023-08-20T01:42:48;10.90;;;7.70;;
20230;SDS011;10274;49.022;9.338;2023-08-20T01:45:14;8.07;;;7.37;;
20230;SDS011;10274;49.022;9.338;2023-08-20T01:47:44;10.80;;;8.07;;
20230;SDS011;10274;49.022;9.338;2023-08-20T01:50:11;8.37;;;7.40;;
20230;SDS011;10274;49.022;9.338;2023-08-20T01:52:38;8.10;;;7.40;;
20230;SDS011;10274;49.022;9.338;2023-08-20T01:55:05;9.37;;;7.90;;
20230;SDS011;10274;49.022;9.338;2023-08-20T01:57:32;8.03;;;7.30;;
20230;SDS011;10274;49.022;9.338;2023-08-20T01:59:59;8.57;;;7.60;;
20230;SDS011;10274;49.022;9.338;2023-08-20T02:02:25;8.60;;;7.30;;
20230;SDS011;10274;49.022;9.338;2023-08-20T02:04:53;8.47;;;7.67;;
20230;SDS011;10274;49.022;9.338;2023-08-20T02:07:20;8.73;;;7.47;;
20230;SDS011;10274;49.022;9.338;2023-08-20T02:09:47;8.60;;;7.70;;
20230;SDS011;10274;49.022;9.338;2023-08-20T02:12:14;8.13;;;7.33;;
20230;SDS011;10274;49.022;9.338;2023-08-20T02:14:41;8.60;;;7.80;;
20230;SDS011;10274;49.022;9.338;2023-08-20T02:17:08;7.73;;;7.03;;
20230;SDS011;10274;49.022;9.338;2023-08-20T02:19:34;8.47;;;7.57;;
20230;SDS011;10274;49.022;9.338;2023-08-20T02:22:02;9.23;;;7.70;;
20230;SDS011;10274;49.022;9.338;2023-08-20T02:24:29;8.67;;;7.87;;
20230;SDS011;10274;49.022;9.338;2023-08-20T02:26:56;8.00;;;7.20;;
20230;SDS011;10274;49.022;9.338;2023-08-20T02:29:23;9.57;;;8.03;;
20230;SDS011;10274;49.022;9.338;2023-08-20T02:31:50;9.07;;;7.47;;
20230;SDS011;10274;49.022;9.338;2023-08-20T02:34:16;8.00;;;7.20;;
20230;SDS011;10274;49.022;9.338;2023-08-20T02:36:43;8.87;;;7.20;;
20230;SDS011;10274;49.022;9.338;2023-08-20T02:39:12;8.17;;;7.47;;
20230;SDS011;10274;49.022;9.338;2023-08-20T02:41:39;9.03;;;8.10;;
20230;SDS011;10274;49.022;9.338;2023-08-20T02:44:06;8.20;;;7.40;;
20230;SDS011;10274;49.022;9.338;2023-08-20T02:46:33;8.27;;;7.47;;
20230;SDS011;10274;49.022;9.338;2023-08-20T02:49:00;8.80;;;7.50;;
20230;SDS011;10274;49.022;9.338;2023-08-20T02:51:26;8.30;;;6.90;;
20230;SDS011;10274;49.022;9.338;2023-08-20T02:53:53;8.77;;;7.87;;
20230;SDS011;10274;49.022;9.338;2023-08-20T02:56:21;8.73;;;7.37;;
20230;SDS011;10274;49.022;9.338;2023-08-20T02:58:48;9.70;;;8.70;;
20230;SDS011;10274;49.022;9.338;2023-08-20T03:01:18;9.83;;;8.07;;
20230;SDS011;10274;49.022;9.338;2023-08-20T03:03:46;9.23;;;8.43;;
20230;SDS011;10274;49.022;9.338;2023-08-20T03:06:13;8.87;;;8.07;;
20230;SDS011;10274;49.022;9.338;2023-08-20T03:08:39;9.07;;;7.40;;
20230;SDS011;10274;49.022;9.338;2023-08-20T03:11:06;8.33;;;7.53;;
20230;SDS011;10274;49.022;9.338;2023-08-20T03:13:34;9.17;;;8.27;;
20230;SDS011;10274;49.022;9.338;2023-08-20T03:16:01;8.83;;;7.80;;
20230;SDS011;10274;49.022;9.338;2023-08-20T03:18:28;8.80;;;7.80;;
20230;SDS011;10274;49.022;9.338;2023-08-20T03:20:55;8.67;;;7.80;;
20230;SDS011;10274;49.022;9.338;2023-08-20T03:23:22;8.43;;;7.33;;
20230;SDS011;10274;49.022;9.338;2023-08-20T03:25:49;11.70;;;8.30;;
20230;SDS011;10274;49.022;9.338;2023-08-20T03:28:17;9.57;;;7.40;;
20230;SDS011;10274;49.022;9.338;2023-08-20T03:30:46;8.70;;;8.00;;
20230;SDS011;10274;49.022;9.338;2023-08-20T03:33:12;8.73;;;7.90;;
20230;SDS011;10274;49.022;9.338;2023-08-20T03:35:40;8.30;;;7.50;;
20230;SDS011;10274;49.022;9.338;2023-08-20T03:38:06;9.00;;;7.43;;
20230;SDS011;10274;49.022;9.338;2023-08-20T03:40:33;7.63;;;6.93;;
20230;SDS011;10274;49.022;9.338;2023-08-20T03:43:00;9.90;;;8.37;;
20230;SDS011;10274;49.022;9.338;2023-08-20T03:45:27;9.23;;;8.33;;
20230;SDS011;10274;49.022;9.338;2023-08-20T03:47:57;9.53;;;8.60;;
20230;SDS011;10274;49.022;9.338;2023-08-20T03:50:23;12.60;;;8.13;;
20230;SDS011;10274;49.022;9.338;2023-08-20T03:52:50;10.00;;;8.27;;
20230;SDS011;10274;49.022;9.338;2023-08-20T03:55:17;10.00;;;7.50;;
20230;SDS011;10274;49.022;9.338;2023-08-20T03:57:44;10.17;;;7.97;;
20230;SDS011;10274;49.022;9.338;2023-08-20T04:00:11;9.63;;;8.37;;
20230;SDS011;10274;49.022;9.338;2023-08-20T04:02:38;9.80;;;8.80;;
20230;SDS011;10274;49.022;9.338;2023-08-20T04:05:06;9.27;;;7.90;;
20230;SDS011;10274;49.022;9.338;2023-08-20T04:07:33;8.00;;;7.10;;
20230;SDS011;10274;49.022;9.338;2023-08-20T04:10:01;8.47;;;7.67;;
20230;SDS011;10274;49.022;9.338;2023-08-20T04:12:28;9.87;;;8.70;;
20230;SDS011;10274;49.022;9.338;2023-08-20T04:14:55;8.37;;;7.60;;
20230;SDS011;10274;49.022;9.338;2023-08-20T04:17:21;8.73;;;7.83;;
20230;SDS011;10274;49.022;9.338;2023-08-20T04:19:48;8.83;;;7.23;;
20230;SDS011;10274;49.022;9.338;2023-08-20T04:22:16;8.83;;;7.90;;
20230;SDS011;10274;49.022;9.338;2023-08-20T04:24:43;8.53;;;7.73;;
20230;SDS011;10274;49.022;9.338;2023-08-20T04:27:10;8.20;;;7.40;;
20230;SDS011;10274;49.022;9.338;2023-08-20T04:29:36;8.60;;;7.67;;
20230;SDS011;10274;49.022;9.338;2023-08-20T04:32:03;10.17;;;8.10;;
20230;SDS011;10274;49.022;9.338;2023-08-20T04:34:30;9.37;;;8.17;;
20230;SDS011;10274;49.022;9.338;2023-08-20T04:36:58;10.20;;;8.60;;
20230;SDS011;10274;49.022;9.338;2023-08-20T04:39:26;9.03;;;8.23;;
20230;SDS011;10274;49.022;9.338;2023-08-20T04:41:53;8.93;;;8.03;;
20230;SDS011;10274;49.022;9.338;2023-08-20T04:44:22;9.10;;;8.20;;
20230;SDS011;10274;49.022;9.338;2023-08-20T04:46:49;9.83;;;8.93;;
20230;SDS011;10274;49.022;9.338;2023-08-20T04:49:15;9.00;;;8.30;;
20230;SDS011;10274;49.022;9.338;2023-08-20T04:51:42;9.57;;;8.67;;
20230;SDS011;10274;49.022;9.338;2023-08-20T04:54:09;9.50;;;8.57;;
20230;SDS011;10274;49.022;9.338;2023-08-20T04:56:37;9.20;;;8.30;;
20230;SDS011;10274;49.022;9.338;2023-08-20T04:59:03;8.63;;;7.83;;
20230;SDS011;10274;49.022;9.338;2023-08-20T05:01:30;8.67;;;7.87;;
20230;SDS011;10274;49.022;9.338;2023-08-20T05:03:57;8.43;;;7.57;;
20230;SDS011;10274;49.022;9.338;2023-08-20T05:06:24;8.23;;;7.37;;
20230;SDS011;10274;49.022;9.338;2023-08-20T05:08:50;8.00;;;7.20;;
20230;SDS011;10274;49.022;9.338;2023-08-20T05:11:17;8.00;;;7.40;;
20230;SDS011;10274;49.022;9.338;2023-08-20T05:13:45;7.83;;;7.23;;
20230;SDS011;10274;49.022;9.338;2023-08-20T05:16:13;8.80;;;7.90;;
20230;SDS011;10274;49.022;9.338;2023-08-20T05:18:40;9.80;;;8.20;;
20230;SDS011;10274;49.022;9.338;2023-08-20T05:21:07;8.90;;;7.93;;
20230;SDS011;10274;49.022;9.338;2023-08-20T05:23:33;8.73;;;7.93;;
20230;SDS011;10274;49.022;9.338;2023-08-20T05:26:00;8.70;;;7.80;;
20230;SDS011;10274;49.022;9.338;2023-08-20T05:28:27;8.37;;;7.40;;
20230;SDS011;10274;49.022;9.338;2023-08-20T05:30:55;9.03;;;8.23;;
20230;SDS011;10274;49.022;9.338;2023-08-20T05:33:22;11.53;;;8.67;;
20230;SDS011;10274;49.022;9.338;2023-08-20T05:35:49;8.93;;;8.13;;
20230;SDS011;10274;49.022;9.338;2023-08-20T05:38:16;9.97;;;9.07;;
20230;SDS011;10274;49.022;9.338;2023-08-20T05:40:43;9.23;;;8.43;;
20230;SDS011;10274;49.022;9.338;2023-08-20T05:43:10;8.33;;;7.47;;
20230;SDS011;10274;49.022;9.338;2023-08-20T05:45:36;9.83;;;7.87;;
20230;SDS011;10274;49.022;9.338;2023-08-20T05:48:05;9.37;;;8.57;;
20230;SDS011;10274;49.022;9.338;2023-08-20T05:50:32;9.13;;;8.27;;
20230;SDS011;10274;49.022;9.338;2023-08-20T05:52:59;9.77;;;8.20;;
20230;SDS011;10274;49.022;9.338;2023-08-20T05:55:26;11.67;;;8.87;;
20230;SDS011;10274;49.022;9.338;2023-08-20T05:57:53;11.27;;;9.40;;
20230;SDS011;10274;49.022;9.338;2023-08-20T06:00:20;9.93;;;8.93;;
20230;SDS011;10274;49.022;9.338;2023-08-20T06:02:47;9.87;;;8.73;;
20230;SDS011;10274;49.022;9.338;2023-08-20T06:05:15;10.40;;;9.13;;
20230;SDS011;10274;49.022;9.338;2023-08-20T06:07:42;9.67;;;8.67;;
20230;SDS011;10274;49.022;9.338;2023-08-20T06:10:09;9.87;;;8.83;;
20230;SDS011;10274;49.022;9.338;2023-08-20T06:12:36;11.93;;;8.90;;
20230;SDS011;10274;49.022;9.338;2023-08-20T06:15:04;9.77;;;8.87;;
20230;SDS011;10274;49.022;9.338;2023-08-20T06:17:31;9.30;;;8.20;;
20230;SDS011;10274;49.022;9.338;2023-08-20T06:19:58;11.50;;;8.67;;
20230;SDS011;10274;49.022;9.338;2023-08-20T06:22:26;9.47;;;8.57;;
20230;SDS011;10274;49.022;9.338;2023-08-20T06:24:53;9.80;;;8.87;;
20230;SDS011;10274;49.022;9.338;2023-08-20T06:27:20;9.27;;;8.37;;
20230;SDS011;10274;49.022;9.338;2023-08-20T06:29:46;9.07;;;8.23;;
20230;SDS011;10274;49.022;9.338;2023-08-20T06:32:13;9.57;;;8.57;;
20230;SDS011;10274;49.022;9.338;2023-08-20T06:34:40;10.53;;;9.00;;
20230;SDS011;10274;49.022;9.338;2023-08-20T06:37:06;10.23;;;8.87;;
20230;SDS011;10274;49.022;9.338;2023-08-20T06:39:35;10.63;;;9.70;;
20230;SDS011;10274;49.022;9.338;2023-08-20T06:42:01;9.90;;;9.00;;
20230;SDS011;10274;49.022;9.338;2023-08-20T06:44:28;10.13;;;8.93;;
20230;SDS011;10274;49.022;9.338;2023-08-20T06:46:55;11.33;;;9.67;;
20230;SDS011;10274;49.022;9.338;2023-08-20T06:49:22;12.17;;;8.83;;
20230;SDS011;10274;49.022;9.338;2023-08-20T06:51:48;11.45;;;9.25;;
20230;SDS011;10274;49.022;9.338;2023-08-20T06:54:15;10.80;;;9.80;;
20230;SDS011;10274;49.022;9.338;2023-08-20T06:56:43;10.30;;;8.90;;
20230;SDS011;10274;49.022;9.338;2023-08-20T06:59:10;13.20;;;8.57;;
20230;SDS011;10274;49.022;9.338;2023-08-20T07:01:37;11.68;;;9.30;;
20230;SDS011;10274;49.022;9.338;2023-08-20T07:04:04;10.85;;;9.50;;
20230;SDS011;10274;49.022;9.338;2023-08-20T07:06:31;10.65;;;9.65;;
20230;SDS011;10274;49.022;9.338;2023-08-20T07:08:58;12.68;;;9.57;;
20230;SDS011;10274;49.022;9.338;2023-08-20T07:11:24;12.00;;;10.13;;
20230;SDS011;10274;49.022;9.338;2023-08-20T07:13:53;12.27;;;10.88;;
20230;SDS011;10274;49.022;9.338;2023-08-20T07:16:19;12.15;;;10.35;;
20230;SDS011;10274;49.022;9.338;2023-08-20T07:18:46;12.55;;;11.20;;
20230;SDS011;10274;49.022;9.338;2023-08-20T07:21:13;13.90;;;11.18;;
20230;SDS011;10274;49.022;9.338;2023-08-20T07:23:39;12.55;;;11.35;;
20230;SDS011;10274;49.022;9.338;2023-08-20T07:26:07;11.55;;;10.48;;
20230;SDS011;10274;49.022;9.338;2023-08-20T07:28:35;12.73;;;10.93;;
20230;SDS011;10274;49.022;9.338;2023-08-20T07:31:23;13.68;;;10.05;;
20230;SDS011;10274;49.022;9.338;2023-08-20T07:33:51;11.15;;;10.05;;
20230;SDS011;10274;49.022;9.338;2023-08-20T07:36:18;11.48;;;10.30;;
20230;SDS011;10274;49.022;9.338;2023-08-20T07:38:47;11.45;;;10.13;;
20230;SDS011;10274;49.022;9.338;2023-08-20T07:41:14;13.73;;;10.30;;
20230;SDS011;10274;49.022;9.338;2023-08-20T07:43:40;12.70;;;10.07;;
20230;SDS011;10274;49.022;9.338;2023-08-20T07:46:08;11.18;;;9.18;;
20230;SDS011;10274;49.022;9.338;2023-08-20T07:48:36;9.30;;;8.35;;
20230;SDS011;10274;49.022;9.338;2023-08-20T07:51:03;10.25;;;9.15;;
20230;SDS011;10274;49.022;9.338;2023-08-20T07:53:30;10.48;;;9.38;;
20230;SDS011;10274;49.022;9.338;2023-08-20T07:55:57;11.18;;;8.98;;
20230;SDS011;10274;49.022;9.338;2023-08-20T07:58:25;11.02;;;9.38;;
20230;SDS011;10274;49.022;9.338;2023-08-20T08:00:52;10.00;;;8.85;;
20230;SDS011;10274;49.022;9.338;2023-08-20T08:03:18;10.32;;;9.38;;
20230;SDS011;10274;49.022;9.338;2023-08-20T08:05:50;10.20;;;9.15;;
20230;SDS011;10274;49.022;9.338;2023-08-20T08:08:18;11.27;;;9.93;;
20230;SDS011;10274;49.022;9.338;2023-08-20T08:10:45;11.07;;;9.45;;
20230;SDS011;10274;49.022;9.338;2023-08-20T08:13:12;11.10;;;9.20;;
20230;SDS011;10274;49.022;9.338;2023-08-20T08:15:40;9.40;;;8.50;;
20230;SDS011;10274;49.022;9.338;2023-08-20T08:18:07;13.57;;;9.68;;
20230;SDS011;10274;49.022;9.338;2023-08-20T08:20:34;9.27;;;8.32;;
20230;SDS011;10274;49.022;9.338;2023-08-20T08:23:03;8.88;;;7.50;;
20230;SDS011;10274;49.022;9.338;2023-08-20T08:25:30;10.50;;;9.50;;
20230;SDS011;10274;49.022;9.338;2023-08-20T08:27:56;9.00;;;8.18;;
20230;SDS011;10274;49.022;9.338;2023-08-20T08:30:23;10.70;;;7.75;;
20230;SDS011;10274;49.022;9.338;2023-08-20T08:32:50;9.43;;;8.52;;
20230;SDS011;10274;49.022;9.338;2023-08-20T08:35:17;13.02;;;9.70;;
20230;SDS011;10274;49.022;9.338;2023-08-20T08:37:44;8.43;;;7.63;;
20230;SDS011;10274;49.022;9.338;2023-08-20T08:40:12;8.82;;;7.53;;
20230;SDS011;10274;49.022;9.338;2023-08-20T08:42:40;9.23;;;7.70;;
20230;SDS011;10274;49.022;9.338;2023-08-20T08:45:08;10.50;;;8.02;;
20230;SDS011;10274;49.022;9.338;2023-08-20T08:47:36;8.30;;;7.35;;
20230;SDS011;10274;49.022;9.338;2023-08-20T08:50:06;8.20;;;7.40;;
20230;SDS011;10274;49.022;9.338;2023-08-20T08:52:35;11.40;;;7.78;;
20230;SDS011;10274;49.022;9.338;2023-08-20T08:55:03;8.32;;;7.35;;
20230;SDS011;10274;49.022;9.338;2023-08-20T08:57:34;9.55;;;8.18;;
20230;SDS011;10274;49.022;9.338;2023-08-20T09:00:01;9.00;;;6.93;;
20230;SDS011;10274;49.022;9.338;2023-08-20T09:02:28;8.35;;;7.53;;
20230;SDS011;10274;49.022;9.338;2023-08-20T09:04:55;8.27;;;7.47;;
20230;SDS011;10274;49.022;9.338;2023-08-20T09:07:22;8.45;;;6.82;;
20230;SDS011;10274;49.022;9.338;2023-08-20T09:09:49;8.73;;;7.75;;
20230;SDS011;10274;49.022;9.338;2023-08-20T09:12:16;7.55;;;6.82;;
20230;SDS011;10274;49.022;9.338;2023-08-20T09:14:46;9.57;;;7.37;;
20230;SDS011;10274;49.022;9.338;2023-08-20T09:17:14;7.72;;;6.93;;
20230;SDS011;10274;49.022;9.338;2023-08-20T09:19:42;7.53;;;6.22;;
20230;SDS011;10274;49.022;9.338;2023-08-20T09:22:11;7.00;;;6.40;;
20230;SDS011;10274;49.022;9.338;2023-08-20T09:24:39;9.37;;;7.27;;
20230;SDS011;10274;49.022;9.338;2023-08-20T09:27:08;7.47;;;6.75;;
20230;SDS011;10274;49.022;9.338;2023-08-20T09:29:43;7.43;;;6.70;;
20230;SDS011;10274;49.022;9.338;2023-08-20T09:32:15;9.32;;;6.88;;
20230;SDS011;10274;49.022;9.338;2023-08-20T09:34:42;8.07;;;6.65;;
20230;SDS011;10274;49.022;9.338;2023-08-20T09:37:10;10.15;;;6.65;;
20230;SDS011;10274;49.022;9.338;2023-08-20T09:39:38;7.25;;;6.55;;
20230;SDS011;10274;49.022;9.338;2023-08-20T09:42:05;7.32;;;6.63;;
20230;SDS011;10274;49.022;9.338;2023-08-20T09:44:33;7.27;;;6.57;;
20230;SDS011;10274;49.022;9.338;2023-08-20T09:47:01;7.25;;;6.55;;
20230;SDS011;10274;49.022;9.338;2023-08-20T09:49:35;7.80;;;6.47;;
20230;SDS011;10274;49.022;9.338;2023-08-20T09:52:04;8.00;;;6.65;;
20230;SDS011;10274;49.022;9.338;2023-08-20T09:54:35;8.63;;;6.37;;
20230;SDS011;10274;49.022;9.338;2023-08-20T09:57:11;6.47;;;5.85;;
20230;SDS011;10274;49.022;9.338;2023-08-20T09:59:41;7.63;;;6.47;;
20230;SDS011;10274;49.022;9.338;2023-08-20T10:02:08;6.22;;;5.63;;
20230;SDS011;10274;49.022;9.338;2023-08-20T10:04:39;8.75;;;6.57;;
20230;SDS011;10274;49.022;9.338;2023-08-20T10:07:06;6.47;;;5.85;;
20230;SDS011;10274;49.022;9.338;2023-08-20T10:09:33;8.07;;;5.87;;
20230;SDS011;10274;49.022;9.338;2023-08-20T10:12:00;6.00;;;5.40;;
20230;SDS011;10274;49.022;9.338;2023-08-20T10:14:27;7.60;;;5.60;;
20230;SDS011;10274;49.022;9.338;2023-08-20T10:16:54;7.38;;;5.72;;
20230;SDS011;10274;49.022;9.338;2023-08-20T10:19:21;6.17;;;5.47;;
20230;SDS011;10274;49.022;9.338;2023-08-20T10:21:51;7.13;;;5.43;;
20230;SDS011;10274;49.022;9.338;2023-08-20T10:24:18;6.53;;;5.38;;
20230;SDS011;10274;49.022;9.338;2023-08-20T10:26:45;6.05;;;5.40;;
20230;SDS011;10274;49.022;9.338;2023-08-20T10:32:04;6.30;;;5.40;;
20230;SDS011;10274;49.022;9.338;2023-08-20T10:37:04;8.15;;;5.03;;
20230;SDS011;10274;49.022;9.338;2023-08-20T10:39:35;5.88;;;4.80;;
20230;SDS011;10274;49.022;9.338;2023-08-20T10:42:08;6.00;;;5.05;;
20230;SDS011;10274;49.022;9.338;2023-08-20T10:47:23;5.65;;;4.53;;
20230;SDS011;10274;49.022;9.338;2023-08-20T10:49:50;5.53;;;4.90;;
20230;SDS011;10274;49.022;9.338;2023-08-20T10:52:19;5.10;;;4.40;;
20230;SDS011;10274;49.022;9.338;2023-08-20T10:54:49;6.63;;;4.40;;
20230;SDS011;10274;49.022;9.338;2023-08-20T10:57:17;5.82;;;4.38;;
20230;SDS011;10274;49.022;9.338;2023-08-20T10:59:47;4.85;;;4.40;;
20230;SDS011;10274;49.022;9.338;2023-08-20T11:02:23;5.10;;;4.38;;
20230;SDS011;10274;49.022;9.338;2023-08-20T11:04:51;4.75;;;3.92;;
20230;SDS011;10274;49.022;9.338;2023-08-20T11:07:20;3.97;;;3.60;;
20230;SDS011;10274;49.022;9.338;2023-08-20T11:09:48;4.93;;;4.00;;
20230;SDS011;10274;49.022;9.338;2023-08-20T11:12:19;4.50;;;4.10;;
20230;SDS011;10274;49.022;9.338;2023-08-20T11:14:47;4.57;;;3.80;;
20230;SDS011;10274;49.022;9.338;2023-08-20T11:17:13;5.13;;;3.85;;
20230;SDS011;10274;49.022;9.338;2023-08-20T11:19:40;4.30;;;3.85;;
20230;SDS011;10274;49.022;9.338;2023-08-20T11:22:07;5.00;;;4.00;;
20230;SDS011;10274;49.022;9.338;2023-08-20T11:24:36;4.78;;;4.28;;
20230;SDS011;10274;49.022;9.338;2023-08-20T11:27:04;5.10;;;4.40;;
20230;SDS011;10274;49.022;9.338;2023-08-20T11:29:31;6.40;;;4.32;;
20230;SDS011;10274;49.022;9.338;2023-08-20T11:31:57;4.95;;;4.25;;
20230;SDS011;10274;49.022;9.338;2023-08-20T11:34:28;4.13;;;3.80;;
20230;SDS011;10274;49.022;9.338;2023-08-20T11:36:55;6.72;;;4.10;;
20230;SDS011;10274;49.022;9.338;2023-08-20T11:39:23;4.90;;;3.90;;
20230;SDS011;10274;49.022;9.338;2023-08-20T11:41:51;4.88;;;4.38;;
20230;SDS011;10274;49.022;9.338;2023-08-20T11:44:19;6.32;;;4.10;;
20230;SDS011;10274;49.022;9.338;2023-08-20T11:46:46;8.35;;;4.50;;
20230;SDS011;10274;49.022;9.338;2023-08-20T11:49:13;5.13;;;4.63;;
20230;SDS011;10274;49.022;9.338;2023-08-20T11:51:42;6.68;;;4.35;;
20230;SDS011;10274;49.022;9.338;2023-08-20T11:54:11;6.05;;;4.47;;
20230;SDS011;10274;49.022;9.338;2023-08-20T11:56:43;5.25;;;4.35;;
20230;SDS011;10274;49.022;9.338;2023-08-20T11:59:12;4.72;;;4.28;;
20230;SDS011;10274;49.022;9.338;2023-08-20T12:01:40;5.33;;;4.13;;
20230;SDS011;10274;49.022;9.338;2023-08-20T12:04:07;6.25;;;4.20;;
20230;SDS011;10274;49.022;9.338;2023-08-20T12:06:35;5.15;;;4.20;;
20230;SDS011;10274;49.022;9.338;2023-08-20T12:09:12;5.17;;;4.00;;
20230;SDS011;10274;49.022;9.338;2023-08-20T12:11:47;4.90;;;4.50;;
20230;SDS011;10274;49.022;9.338;2023-08-20T12:14:16;5.35;;;4.32;;
20230;SDS011;10274;49.022;9.338;2023-08-20T12:16:43;4.57;;;4.07;;
20230;SDS011;10274;49.022;9.338;2023-08-20T12:19:10;4.47;;;4.00;;
20230;SDS011;10274;49.022;9.338;2023-08-20T12:21:37;4.75;;;4.15;;
20230;SDS011;10274;49.022;9.338;2023-08-20T12:24:04;4.70;;;4.07;;
20230;SDS011;10274;49.022;9.338;2023-08-20T12:26:31;5.53;;;4.70;;
20230;SDS011;10274;49.022;9.338;2023-08-20T12:28:58;5.30;;;4.47;;
20230;SDS011;10274;49.022;9.338;2023-08-20T12:31:26;5.10;;;4.28;;
20230;SDS011;10274;49.022;9.338;2023-08-20T12:33:53;5.97;;;4.22;;
20230;SDS011;10274;49.022;9.338;2023-08-20T12:36:19;7.78;;;4.60;;
20230;SDS011;10274;49.022;9.338;2023-08-20T12:38:46;5.07;;;4.33;;
20230;SDS011;10274;49.022;9.338;2023-08-20T12:41:13;6.40;;;4.40;;
20230;SDS011;10274;49.022;9.338;2023-08-20T12:43:40;4.60;;;4.20;;
20230;SDS011;10274;49.022;9.338;2023-08-20T12:46:07;5.47;;;4.72;;
20230;SDS011;10274;49.022;9.338;2023-08-20T12:48:35;5.60;;;4.43;;
20230;SDS011;10274;49.022;9.338;2023-08-20T12:51:02;4.70;;;4.30;;
20230;SDS011;10274;49.022;9.338;2023-08-20T12:53:29;8.07;;;4.78;;
20230;SDS011;10274;49.022;9.338;2023-08-20T12:55:56;4.30;;;3.90;;
20230;SDS011;10274;49.022;9.338;2023-08-20T12:58:22;6.00;;;4.25;;
20230;SDS011;10274;49.022;9.338;2023-08-20T13:00:49;5.88;;;4.20;;
20230;SDS011;10274;49.022;9.338;2023-08-20T13:03:16;4.53;;;3.90;;
20230;SDS011;10274;49.022;9.338;2023-08-20T13:05:45;5.65;;;4.05;;
20230;SDS011;10274;49.022;9.338;2023-08-20T13:08:13;5.97;;;4.18;;
20230;SDS011;10274;49.022;9.338;2023-08-20T13:10:40;4.55;;;4.10;;
20230;SDS011;10274;49.022;9.338;2023-08-20T13:13:08;4.82;;;4.22;;
20230;SDS011;10274;49.022;9.338;2023-08-20T13:15:36;6.07;;;4.50;;
20230;SDS011;10274;49.022;9.338;2023-08-20T13:18:04;4.90;;;4.20;;
20230;SDS011;10274;49.022;9.338;2023-08-20T13:20:32;5.68;;;4.60;;
20230;SDS011;10274;49.022;9.338;2023-08-20T13:23:00;4.93;;;4.00;;
20230;SDS011;10274;49.022;9.338;2023-08-20T13:25:27;5.13;;;3.97;;
20230;SDS011;10274;49.022;9.338;2023-08-20T13:27:54;5.63;;;4.28;;
20230;SDS011;10274;49.022;9.338;2023-08-20T13:30:21;4.32;;;3.90;;
20230;SDS011;10274;49.022;9.338;2023-08-20T13:32:48;4.65;;;4.25;;
20230;SDS011;10274;49.022;9.338;2023-08-20T13:35:15;6.03;;;4.00;;
20230;SDS011;10274;49.022;9.338;2023-08-20T13:37:43;7.97;;;4.18;;
20230;SDS011;10274;49.022;9.338;2023-08-20T13:40:12;5.40;;;4.35;;
20230;SDS011;10274;49.022;9.338;2023-08-20T13:42:38;5.78;;;3.80;;
20230;SDS011;10274;49.022;9.338;2023-08-20T13:45:06;5.57;;;4.03;;
20230;SDS011;10274;49.022;9.338;2023-08-20T13:47:33;4.57;;;4.18;;
20230;SDS011;10274;49.022;9.338;2023-08-20T13:50:00;5.80;;;3.90;;
20230;SDS011;10274;49.022;9.338;2023-08-20T13:52:28;6.03;;;4.00;;
20230;SDS011;10274;49.022;9.338;2023-08-20T13:54:55;4.30;;;3.90;;
20230;SDS011;10274;49.022;9.338;2023-08-20T13:57:23;4.80;;;4.03;;
20230;SDS011;10274;49.022;9.338;2023-08-20T13:59:50;5.10;;;4.10;;
20230;SDS011;10274;49.022;9.338;2023-08-20T14:02:16;6.50;;;4.05;;
20230;SDS011;10274;49.022;9.338;2023-08-20T14:04:43;5.15;;;4.10;;
20230;SDS011;10274;49.022;9.338;2023-08-20T14:07:10;6.53;;;4.15;;
20230;SDS011;10274;49.022;9.338;2023-08-20T14:09:37;4.97;;;3.92;;
20230;SDS011;10274;49.022;9.338;2023-08-20T14:12:05;5.25;;;4.00;;
20230;SDS011;10274;49.022;9.338;2023-08-20T14:14:34;5.75;;;4.20;;
20230;SDS011;10274;49.022;9.338;2023-08-20T14:17:00;5.75;;;4.00;;
20230;SDS011;10274;49.022;9.338;2023-08-20T14:19:28;4.53;;;4.13;;
20230;SDS011;10274;49.022;9.338;2023-08-20T14:21:54;5.38;;;4.10;;
20230;SDS011;10274;49.022;9.338;2023-08-20T14:24:21;5.63;;;4.40;;
20230;SDS011;10274;49.022;9.338;2023-08-20T14:26:48;4.95;;;3.95;;
20230;SDS011;10274;49.022;9.338;2023-08-20T14:29:14;4.55;;;3.97;;
20230;SDS011;10274;49.022;9.338;2023-08-20T14:31:42;6.00;;;3.88;;
20230;SDS011;10274;49.022;9.338;2023-08-20T14:34:09;5.18;;;3.90;;
20230;SDS011;10274;49.022;9.338;2023-08-20T14:36:36;4.85;;;3.90;;
20230;SDS011;10274;49.022;9.338;2023-08-20T14:39:04;5.37;;;3.90;;
20230;SDS011;10274;49.022;9.338;2023-08-20T14:41:32;5.15;;;4.20;;
20230;SDS011;10274;49.022;9.338;2023-08-20T14:43:59;5.60;;;4.00;;
20230;SDS011;10274;49.022;9.338;2023-08-20T14:46:26;5.77;;;4.23;;
20230;SDS011;10274;49.022;9.338;2023-08-20T14:48:54;5.15;;;3.70;;
20230;SDS011;10274;49.022;9.338;2023-08-20T14:51:21;4.35;;;3.95;;
20230;SDS011;10274;49.022;9.338;2023-08-20T14:53:47;4.43;;;4.03;;
20230;SDS011;10274;49.022;9.338;2023-08-20T14:56:14;6.77;;;3.90;;